createdAt,value
2024-04-18T00:01:00.230Z,18.92
2024-04-18T00:03:43.240Z,18.94
2024-04-18T00:09:09.828Z,18.89
2024-04-18T00:11:41.447Z,18.87
2024-04-18T00:14:21.507Z,18.91
2024-04-18T00:17:05.896Z,18.88
2024-04-18T00:19:48.371Z,18.85
2024-04-18T00:22:41.134Z,18.73
2024-04-18T00:25:22.475Z,18.68
2024-04-18T00:28:19.716Z,18.67
2024-04-18T00:30:54.668Z,18.59
2024-04-18T00:33:36.027Z,18.59
2024-04-18T00:36:34.065Z,18.73
2024-04-18T00:39:30.287Z,18.68
2024-04-18T00:42:08.013Z,18.75
2024-04-18T00:45:09.963Z,18.78
2024-04-18T00:48:04.294Z,18.82
2024-04-18T00:57:19.400Z,18.72
2024-04-18T01:00:12.152Z,18.64
2024-04-18T01:06:25.227Z,18.57
2024-04-18T01:09:24.724Z,18.54
2024-04-18T01:12:17.939Z,18.51
2024-04-18T01:17:46.081Z,18.41
2024-04-18T01:20:23.314Z,18.41
2024-04-18T01:23:12.943Z,18.44
2024-04-18T01:26:03.591Z,18.41
2024-04-18T01:28:36.461Z,18.37
2024-04-18T01:31:12.716Z,18.44
2024-04-18T01:33:52.374Z,18.33
2024-04-18T01:36:52.005Z,18.34
2024-04-18T01:39:38.332Z,18.30
2024-04-18T01:42:15.745Z,18.33
2024-04-18T01:47:53.399Z,18.24
2024-04-18T01:56:31.977Z,18.40
2024-04-18T01:59:36.033Z,18.45
2024-04-18T02:02:14.007Z,18.40
2024-04-18T02:05:18.175Z,18.38
2024-04-18T02:08:03.465Z,18.31
2024-04-18T02:11:15.738Z,18.31
2024-04-18T02:14:11.815Z,18.43
2024-04-18T02:17:02.319Z,18.38
2024-04-18T02:22:41.973Z,18.44
2024-04-18T02:25:42.445Z,18.45
2024-04-18T02:31:21.832Z,18.45
2024-04-18T02:34:03.344Z,18.51
2024-04-18T02:37:00.391Z,18.47
2024-04-18T02:43:13.451Z,18.54
2024-04-18T02:49:07.699Z,18.71
2024-04-18T02:52:10.048Z,18.69
2024-04-18T02:54:58.346Z,18.67
2024-04-18T02:57:32.774Z,18.67
2024-04-18T03:00:07.218Z,18.71
2024-04-18T03:02:52.120Z,18.67
2024-04-18T03:05:49.206Z,18.65
2024-04-18T03:08:39.471Z,18.65
2024-04-18T03:11:45.479Z,18.69
2024-04-18T03:14:29.348Z,18.67
2024-04-18T03:17:31.461Z,18.67
2024-04-18T03:20:53.659Z,18.58
2024-04-18T03:23:52.067Z,18.47
2024-04-18T03:32:39.694Z,18.48
2024-04-18T03:35:35.777Z,18.45
2024-04-18T03:44:18.773Z,18.59
2024-04-18T03:47:01.590Z,18.68
2024-04-18T03:49:50.226Z,18.79
2024-04-18T03:52:50.789Z,18.79
2024-04-18T03:55:48.544Z,18.73
2024-04-18T03:58:29.033Z,18.68
2024-04-18T04:04:22.408Z,18.75
2024-04-18T04:09:42.488Z,18.71
2024-04-18T04:12:29.367Z,18.69
2024-04-18T04:15:17.908Z,18.78
2024-04-18T04:21:23.835Z,18.81
2024-04-18T04:24:05.678Z,18.79
2024-04-18T04:26:59.789Z,18.73
2024-04-18T04:29:59.072Z,18.75
2024-04-18T04:32:34.482Z,18.71
2024-04-18T04:35:39.318Z,18.58
2024-04-18T04:38:23.530Z,18.59
2024-04-18T04:44:06.328Z,18.48
2024-04-18T04:47:09.322Z,18.48
2024-04-18T04:50:01.475Z,18.44
2024-04-18T04:53:29.126Z,18.40
2024-04-18T04:56:21.873Z,18.16
2024-04-18T04:59:15.353Z,18.13
2024-04-18T05:02:15.671Z,18.14
2024-04-18T05:08:36.828Z,18.08
2024-04-18T05:11:15.767Z,18.03
2024-04-18T05:17:15.386Z,17.96
2024-04-18T05:20:25.737Z,17.96
2024-04-18T05:23:09.034Z,17.89
2024-04-18T05:25:54.128Z,17.96
2024-04-18T05:28:58.957Z,17.96
2024-04-18T05:31:41.598Z,17.93
2024-04-18T05:34:19.504Z,17.90
2024-04-18T05:37:05.144Z,17.93
2024-04-18T05:42:39.484Z,17.96
2024-04-18T05:45:52.843Z,17.94
2024-04-18T05:48:33.778Z,17.91
2024-04-18T05:54:12.162Z,17.97
2024-04-18T05:57:07.947Z,17.96
2024-04-18T05:59:56.612Z,18.00
2024-04-18T06:05:19.498Z,18.00
2024-04-18T06:08:13.101Z,17.98
2024-04-18T06:10:56.310Z,17.98
2024-04-18T06:16:42.842Z,17.90
2024-04-18T06:20:04.942Z,17.89
2024-04-18T06:22:39.289Z,17.85
2024-04-18T06:25:50.009Z,17.93
2024-04-18T06:31:58.396Z,17.90
2024-04-18T06:37:57.516Z,17.89
2024-04-18T06:40:37.033Z,17.96
2024-04-18T06:43:24.862Z,18.03
2024-04-18T06:46:05.801Z,18.11
2024-04-18T06:48:45.684Z,18.17
2024-04-18T06:51:29.706Z,18.21
2024-04-18T06:59:48.700Z,18.14
2024-04-18T07:02:38.885Z,18.21
2024-04-18T07:08:24.535Z,18.27
2024-04-18T07:11:04.863Z,18.31
2024-04-18T07:13:55.579Z,18.18
2024-04-18T07:19:40.802Z,18.11
2024-04-18T07:28:54.840Z,17.91
2024-04-18T07:31:33.069Z,17.83
2024-04-18T07:34:45.531Z,17.79
2024-04-18T07:37:19.853Z,17.75
2024-04-18T07:39:58.136Z,17.66
2024-04-18T07:42:46.703Z,17.62
2024-04-18T07:45:53.318Z,17.57
2024-04-18T07:48:58.046Z,17.45
2024-04-18T07:51:47.535Z,17.45
2024-04-18T07:54:34.016Z,17.47
2024-04-18T07:57:18.349Z,17.38
2024-04-18T08:00:02.048Z,17.36
2024-04-18T08:06:14.225Z,17.39
2024-04-18T08:15:00.675Z,17.93
2024-04-18T08:17:43.772Z,17.97
2024-04-18T08:20:47.338Z,18.00
2024-04-18T08:26:16.277Z,18.11
2024-04-18T08:28:58.438Z,18.10
2024-04-18T08:31:57.344Z,18.11
2024-04-18T08:34:39.288Z,17.98
2024-04-18T08:37:28.532Z,17.85
2024-04-18T08:40:10.792Z,17.80
2024-04-18T08:42:48.327Z,17.75
2024-04-18T08:45:39.560Z,17.76
2024-04-18T08:48:30.584Z,17.75
2024-04-18T08:51:19.141Z,17.77
2024-04-18T08:54:02.671Z,17.72
2024-04-18T08:56:36.061Z,17.69
2024-04-18T08:59:20.025Z,17.80
2024-04-18T09:02:16.875Z,17.89
2024-04-18T09:05:03.303Z,17.86
2024-04-18T09:07:47.917Z,17.91
2024-04-18T09:10:38.639Z,18.06
2024-04-18T09:13:28.229Z,18.07
2024-04-18T09:16:26.572Z,18.03
2024-04-18T09:19:09.433Z,18.00
2024-04-18T09:21:51.466Z,17.97
2024-04-18T09:24:39.691Z,18.00
2024-04-18T09:27:23.821Z,17.98
2024-04-18T09:38:30.661Z,17.91
2024-04-18T09:44:38.096Z,17.82
2024-04-18T09:47:20.063Z,17.79
2024-04-18T09:53:05.347Z,17.76
2024-04-18T10:01:42.697Z,17.86
2024-04-18T10:07:07.001Z,17.90
2024-04-18T10:09:46.567Z,17.89
2024-04-18T10:12:27.551Z,17.90
2024-04-18T10:15:03.673Z,17.90
2024-04-18T10:17:36.783Z,18.00
2024-04-18T10:20:13.703Z,18.07
2024-04-18T10:22:48.571Z,18.23
2024-04-18T10:25:36.878Z,18.30
2024-04-18T10:28:31.501Z,18.38
2024-04-18T10:31:16.063Z,18.49
2024-04-18T10:33:52.827Z,18.58
2024-04-18T10:36:34.568Z,18.71
2024-04-18T10:39:12.885Z,18.82
2024-04-18T10:41:54.980Z,18.91
2024-04-18T10:44:34.257Z,18.99
2024-04-18T10:47:05.244Z,19.15
2024-04-18T10:49:41.884Z,19.36
2024-04-18T10:52:26.317Z,19.52
2024-04-18T10:55:02.954Z,25.11
2024-04-18T10:57:39.709Z,27.85
2024-04-18T11:00:18.697Z,29.14
2024-04-18T11:02:50.225Z,29.43
2024-04-18T11:05:25.499Z,29.53
2024-04-18T11:07:56.409Z,28.45
2024-04-18T11:10:30.798Z,26.92
2024-04-18T11:13:03.500Z,25.57
2024-04-18T11:15:35.069Z,25.43
2024-04-18T11:18:10.295Z,25.17
2024-04-18T11:20:41.474Z,25.18
2024-04-18T11:23:15.522Z,24.94
2024-04-18T11:25:47.077Z,24.88
2024-04-18T11:28:17.579Z,24.87
2024-04-18T11:30:48.383Z,25.08
2024-04-18T11:33:25.530Z,25.08
2024-04-18T11:35:57.551Z,25.18
2024-04-18T11:38:30.303Z,25.32
2024-04-18T11:41:01.031Z,25.15
2024-04-18T11:43:31.354Z,25.48
2024-04-18T11:46:01.862Z,25.71
2024-04-18T11:48:32.354Z,25.97
2024-04-18T11:51:02.576Z,26.17
2024-04-18T11:53:33.425Z,26.12
2024-04-18T11:56:04.976Z,26.14
2024-04-18T11:58:35.684Z,26.39
2024-04-18T12:01:06.376Z,25.95
2024-04-18T12:03:43.613Z,26.13
2024-04-18T12:06:35.717Z,26.37
2024-04-18T12:09:06.706Z,26.26
2024-04-18T12:11:37.607Z,26.56
2024-04-18T12:14:15.301Z,26.36
2024-04-18T12:16:58.799Z,26.64
2024-04-18T12:19:46.651Z,26.40
2024-04-18T12:22:37.338Z,26.41
2024-04-18T12:25:19.575Z,26.84
2024-04-18T12:27:51.209Z,26.56
2024-04-18T12:30:35.113Z,26.84
2024-04-18T12:33:25.341Z,26.80
2024-04-18T12:35:57.222Z,26.71
2024-04-18T12:38:28.824Z,26.71
2024-04-18T12:41:05.119Z,26.65
2024-04-18T12:43:39.991Z,26.83
2024-04-18T12:46:29.589Z,26.94
2024-04-18T12:49:01.447Z,26.94
2024-04-18T12:51:32.620Z,27.04
2024-04-18T12:54:03.035Z,27.11
2024-04-18T12:56:54.594Z,27.04
2024-04-18T12:59:26.675Z,27.07
2024-04-18T13:01:57.314Z,26.90
2024-04-18T13:04:29.063Z,26.94
2024-04-18T13:07:01.359Z,27.11
2024-04-18T13:09:33.235Z,27.38
2024-04-18T13:12:05.129Z,27.31
2024-04-18T13:14:56.027Z,27.22
2024-04-18T13:17:28.947Z,27.21
2024-04-18T13:20:02.633Z,27.25
2024-04-18T13:22:33.261Z,27.53
2024-04-18T13:25:03.753Z,27.67
2024-04-18T13:27:34.266Z,27.89
2024-04-18T13:30:08.999Z,27.56
2024-04-18T13:32:40.599Z,27.58
2024-04-18T13:35:14.487Z,27.63
2024-04-18T13:37:46.310Z,27.69
2024-04-18T13:40:25.615Z,27.63
2024-04-18T13:43:02.321Z,27.78
2024-04-18T13:45:34.525Z,27.76
2024-04-18T13:48:07.653Z,27.82
2024-04-18T13:50:50.708Z,27.85
2024-04-18T13:53:22.512Z,27.93
2024-04-18T13:55:53.847Z,27.96
2024-04-18T13:58:26.817Z,28.03
2024-04-18T14:01:07.365Z,28.03
2024-04-18T14:04:00.136Z,27.93
2024-04-18T14:06:42.422Z,28.10
2024-04-18T14:09:20.567Z,28.18
2024-04-18T14:11:51.616Z,28.14
2024-04-18T14:14:43.214Z,28.40
2024-04-18T14:17:52.146Z,28.36
2024-04-18T14:20:22.523Z,28.24
2024-04-18T14:23:08.313Z,28.13
2024-04-18T14:25:38.876Z,28.16
2024-04-18T14:28:24.272Z,28.24
2024-04-18T14:31:21.376Z,28.17
2024-04-18T14:33:52.460Z,28.36
2024-04-18T14:36:22.841Z,28.33
2024-04-18T14:38:52.900Z,28.27
2024-04-18T14:41:22.899Z,28.31
2024-04-18T14:43:56.072Z,28.65
2024-04-18T14:46:28.261Z,28.60
2024-04-18T14:49:19.764Z,28.60
2024-04-18T14:51:58.595Z,28.58
2024-04-18T14:54:29.396Z,28.68
2024-04-18T14:57:00.086Z,28.51
2024-04-18T14:59:39.230Z,28.50
2024-04-18T15:02:09.898Z,28.65
2024-04-18T15:05:00.058Z,28.67
2024-04-18T15:07:30.768Z,28.55
2024-04-18T15:10:18.654Z,28.39
2024-04-18T15:13:00.850Z,28.48
2024-04-18T15:15:31.390Z,28.62
2024-04-18T15:18:02.340Z,28.78
2024-04-18T15:20:33.542Z,28.69
2024-04-18T15:23:13.420Z,28.50
2024-04-18T15:25:45.362Z,28.58
2024-04-18T15:28:16.361Z,28.62
2024-04-18T15:30:47.255Z,28.60
2024-04-18T15:33:26.213Z,28.82
2024-04-18T15:36:16.384Z,28.87
2024-04-18T15:38:53.674Z,29.04
2024-04-18T15:41:23.933Z,28.87
2024-04-18T15:44:13.343Z,28.69
2024-04-18T15:46:44.442Z,28.65
2024-04-18T15:49:15.754Z,28.85
2024-04-18T15:51:49.228Z,28.85
2024-04-18T15:54:19.902Z,28.79
2024-04-18T15:56:50.579Z,28.79
2024-04-18T15:59:46.919Z,29.02
2024-04-18T16:02:18.524Z,29.14
2024-04-18T16:04:49.257Z,29.11
2024-04-18T16:07:19.740Z,28.98
2024-04-18T16:09:55.822Z,29.01
2024-04-18T16:12:26.860Z,29.02
2024-04-18T16:15:05.102Z,29.05
2024-04-18T16:17:35.542Z,29.02
2024-04-18T16:20:15.475Z,28.91
2024-04-18T16:22:45.762Z,28.72
2024-04-18T16:25:32.370Z,28.94
2024-04-18T16:28:03.040Z,29.09
2024-04-18T16:30:33.557Z,29.06
2024-04-18T16:33:04.586Z,28.88
2024-04-18T16:35:34.644Z,28.76
2024-04-18T16:38:14.329Z,28.72
2024-04-18T16:40:54.984Z,28.87
2024-04-18T16:43:38.237Z,29.16
2024-04-18T16:46:09.345Z,29.08
2024-04-18T16:48:41.420Z,28.76
2024-04-18T16:51:12.562Z,28.52
2024-04-18T16:53:58.394Z,28.62
2024-04-18T16:56:40.860Z,28.75
2024-04-18T16:59:12.723Z,28.92
2024-04-18T17:01:43.386Z,28.81
2024-04-18T17:04:14.200Z,28.82
2024-04-18T17:07:04.431Z,28.85
2024-04-18T17:09:54.997Z,28.95
2024-04-18T17:12:25.607Z,28.85
2024-04-18T17:15:27.815Z,28.75
2024-04-18T17:17:59.402Z,28.69
2024-04-18T17:20:30.860Z,28.74
2024-04-18T17:23:01.791Z,28.69
2024-04-18T17:25:32.108Z,28.71
2024-04-18T17:28:02.136Z,28.72
2024-04-18T17:30:32.698Z,28.74
2024-04-18T17:33:03.292Z,28.68
2024-04-18T17:35:55.423Z,28.57
2024-04-18T17:38:46.371Z,28.55
2024-04-18T17:41:32.494Z,28.69
2024-04-18T17:44:21.239Z,28.48
2024-04-18T17:46:58.938Z,28.48
2024-04-18T17:49:30.499Z,28.40
2024-04-18T17:52:00.967Z,28.55
2024-04-18T17:54:31.072Z,28.55
2024-04-18T17:57:01.110Z,28.64
2024-04-18T17:59:31.229Z,28.57
2024-04-18T18:02:01.201Z,28.47
2024-04-18T18:04:31.181Z,28.40
2024-04-18T18:07:01.549Z,28.44
2024-04-18T18:09:31.597Z,28.33
2024-04-18T18:12:01.614Z,28.33
2024-04-18T18:14:31.784Z,28.40
2024-04-18T18:17:02.871Z,28.07
2024-04-18T18:19:33.273Z,28.16
2024-04-18T18:22:04.426Z,28.20
2024-04-18T18:24:34.828Z,28.21
2024-04-18T18:27:05.266Z,28.21
2024-04-18T18:29:35.334Z,28.01
2024-04-18T18:32:15.727Z,28.11
2024-04-18T18:34:49.995Z,28.10
2024-04-18T18:37:20.765Z,28.20
2024-04-18T18:40:11.091Z,28.14
2024-04-18T18:42:41.618Z,28.11
2024-04-18T18:45:13.204Z,28.09
2024-04-18T18:47:44.084Z,28.06
2024-04-18T18:50:24.343Z,27.93
2024-04-18T18:52:55.117Z,27.93
2024-04-18T18:55:46.018Z,27.86
2024-04-18T18:58:16.252Z,27.73
2024-04-18T19:00:47.714Z,27.74
2024-04-18T19:03:19.699Z,27.72
2024-04-18T19:05:53.680Z,27.62
2024-04-18T19:08:23.928Z,27.60
2024-04-18T19:10:57.173Z,27.58
2024-04-18T19:13:27.866Z,27.72
2024-04-18T19:15:59.791Z,27.73
2024-04-18T19:18:30.526Z,27.65
2024-04-18T19:21:00.542Z,27.53
2024-04-18T19:23:41.391Z,27.38
2024-04-18T19:26:15.278Z,27.48
2024-04-18T19:28:45.752Z,27.32
2024-04-18T19:31:16.034Z,27.24
2024-04-18T19:33:46.332Z,27.18
2024-04-18T19:36:16.720Z,27.05
2024-04-18T19:38:47.966Z,27.02
2024-04-18T19:41:41.020Z,26.83
2024-04-18T19:44:11.752Z,26.84
2024-04-18T19:46:41.998Z,26.77
2024-04-18T19:49:13.901Z,26.68
2024-04-18T19:52:02.851Z,26.61
2024-04-18T19:54:35.975Z,26.54
2024-04-18T19:57:07.532Z,26.47
2024-04-18T19:59:41.222Z,26.30
2024-04-18T20:02:11.850Z,26.14
2024-04-18T20:04:42.957Z,26.10
2024-04-18T20:07:13.255Z,26.02
2024-04-18T20:09:43.567Z,25.96
2024-04-18T20:12:13.566Z,25.90
2024-04-18T20:15:03.818Z,25.89
2024-04-18T20:17:34.284Z,25.88
2024-04-18T20:20:04.394Z,25.86
2024-04-18T20:22:34.617Z,25.86
2024-04-18T20:25:04.892Z,25.82
2024-04-18T20:27:44.099Z,25.66
2024-04-18T20:30:14.975Z,25.55
2024-04-18T20:33:05.651Z,25.51
2024-04-18T20:35:36.168Z,25.35
2024-04-18T20:38:06.588Z,25.18
2024-04-18T20:40:37.122Z,25.03
2024-04-18T20:43:07.380Z,24.90
2024-04-18T20:45:37.833Z,24.74
2024-04-18T20:48:09.102Z,24.63
2024-04-18T20:50:39.498Z,24.50
2024-04-18T20:53:09.403Z,24.43
2024-04-18T20:55:39.717Z,24.36
2024-04-18T20:58:09.968Z,24.22
2024-04-18T21:00:40.271Z,24.15
2024-04-18T21:03:10.374Z,24.09
2024-04-18T21:05:40.846Z,24.02
2024-04-18T21:08:10.815Z,23.86
2024-04-18T21:10:41.039Z,23.75
2024-04-18T21:13:14.979Z,23.59
2024-04-18T21:15:45.941Z,23.53
2024-04-18T21:18:16.973Z,23.48
2024-04-18T21:20:47.571Z,23.44
2024-04-18T21:23:17.558Z,23.37
2024-04-18T21:25:47.572Z,23.33
2024-04-18T21:28:17.752Z,23.34
2024-04-18T21:30:48.061Z,23.35
2024-04-18T21:33:18.785Z,23.34
2024-04-18T21:35:51.532Z,23.33
2024-04-18T21:38:46.732Z,23.20
2024-04-18T21:41:25.307Z,23.14
2024-04-18T21:43:59.032Z,23.10
2024-04-18T21:46:29.536Z,23.00
2024-04-18T21:48:59.556Z,23.00
2024-04-18T21:51:29.894Z,22.93
2024-04-18T21:54:01.256Z,22.86
2024-04-18T21:56:32.102Z,22.83
2024-04-18T21:59:02.501Z,22.77
2024-04-18T22:01:44.657Z,22.82
2024-04-18T22:04:15.413Z,22.70
2024-04-18T22:06:45.485Z,22.72
2024-04-18T22:09:15.433Z,22.63
2024-04-18T22:11:46.518Z,22.62
2024-04-18T22:14:17.826Z,22.56
2024-04-18T22:16:48.419Z,22.52
2024-04-18T22:19:18.514Z,22.41
2024-04-18T22:21:49.000Z,22.35
2024-04-18T22:24:19.332Z,22.35
2024-04-18T22:26:49.770Z,22.35
2024-04-18T22:29:19.990Z,22.38
2024-04-18T22:31:50.267Z,22.33
2024-04-18T22:34:27.824Z,22.35
2024-04-18T22:37:03.353Z,22.31
2024-04-18T22:39:33.993Z,22.32
2024-04-18T22:42:05.093Z,22.31
2024-04-18T22:44:35.473Z,22.22
2024-04-18T22:47:05.836Z,22.19
2024-04-18T22:49:36.888Z,22.08
2024-04-18T22:52:07.552Z,22.11
2024-04-18T22:54:37.806Z,22.08
2024-04-18T22:57:20.500Z,21.97
2024-04-18T22:59:50.882Z,21.91
2024-04-18T23:02:20.973Z,21.88
2024-04-18T23:04:50.974Z,21.90
2024-04-18T23:07:20.925Z,21.87
2024-04-18T23:09:51.105Z,21.92
2024-04-18T23:12:21.287Z,21.81
2024-04-18T23:14:51.574Z,21.74
2024-04-18T23:17:21.639Z,21.71
2024-04-18T23:19:51.979Z,21.61
2024-04-18T23:22:21.920Z,21.48
2024-04-18T23:24:52.588Z,21.44
2024-04-18T23:27:22.859Z,21.41
2024-04-18T23:29:53.100Z,21.34
2024-04-18T23:32:23.424Z,21.33
2024-04-18T23:34:53.752Z,21.29
2024-04-18T23:37:23.732Z,21.33
2024-04-18T23:39:54.359Z,21.34
2024-04-18T23:42:26.223Z,21.33
2024-04-18T23:44:56.854Z,21.26
2024-04-18T23:47:26.894Z,21.16
2024-04-18T23:49:57.189Z,21.19
2024-04-18T23:52:27.454Z,21.22
2024-04-18T23:55:00.518Z,21.16
2024-04-18T23:57:30.712Z,21.16
